EGTK Airport Information

Runway Information
Runway 01 Length 4327 ft width 75 ft
Elevation 248 ft Threshold 0 ft Heading 11
Runway 19 Length 4327 ft Width 75 ft
Elevation 258 ft Threshold 0 ft Heading 191
Runway 03 Length 2887 ft width 154 ft
Elevation 247 ft Threshold 0 ft Heading 23
Runway 21 Length 2887 ft Width 154 ft
Elevation 252 ft Threshold 0 ft Heading 203
Runway 09 Length 2887 ft width 148 ft
Elevation 258 ft Threshold 0 ft Heading 86
Runway 27 Length 2887 ft Width 148 ft
Elevation 246 ft Threshold 0 ft Heading 266
Runway 11 Length 2493 ft width 92 ft
Elevation 270 ft Threshold 0 ft Heading 111
Runway 29 Length 2493 ft Width 92 ft
Elevation 250 ft Threshold 0 ft Heading 291
Airport Frequencies
Type APP Name OXFORD APP Frequency 125.325 MHZ
Type APP Name Frequency 127.75 MHZ
Type ATIS Name OXFORD ATI Frequency 136.225 MHZ
Type GND Name OXFORD GND Frequency 121.95 MHZ
Type LARS Name Brize Rada Frequency 124.27 MHZ
Type TWR Name OXFORD TWR Frequency 133.425 MHZ
Type TWR Name TWR - Use Frequency 133.425 MHZ
Airport Navaids
Type NDB Name Oxford Frequency 368 KHZ
Type DME Name Oxford Frequency 117700 KHZ
Airport Weather Information & NOTAM
ADDS - METARS form results

(1554 UTC 14 June 2021)
Data provider http://aviationweather.gov/metar/data/
 
METAR text: EGTK 141550Z 29008KT 270V340 9999 FEW042 24/14 Q1020
Conditions at: EGTK (OXFORD , GB) observed 1550 UTC 14 June 2021
Temperature: 24.0°C (75°F)
Dewpoint: 14.0°C (57°F) [RH = 54%]
Pressure (altimeter): 30.12 inches Hg (1020.0 mb)
Winds: from the WNW (290 degrees) at 9 MPH (8 knots; 4.1 m/s)
Visibility: 6 or more miles (10+ km)
Ceiling: at least 12,000 feet AGL
Clouds: few clouds at 4200 feet AGL
Weather: no significant weather observed at this time

METAR text: EGTK 141520Z 28008KT 250V340 9999 FEW036 25/15 Q1020
Conditions at: EGTK (OXFORD , GB) observed 1520 UTC 14 June 2021
Temperature: 25.0°C (77°F)
Dewpoint: 15.0°C (59°F) [RH = 54%]
Pressure (altimeter): 30.12 inches Hg (1020.0 mb)
Winds: from the W (280 degrees) at 9 MPH (8 knots; 4.1 m/s)
Visibility: 6 or more miles (10+ km)
Ceiling: at least 12,000 feet AGL
Clouds: few clouds at 3600 feet AGL
Weather: no significant weather observed at this time

Forecast for: EGTK (OXFORD , GB)
Text: TAF EGTK 141404Z 1415/1421 34008KT 9999 SCT035
Forecast period: 1500 to 2100 UTC 14 June 2021
Forecast type: FROM: standard forecast or significant change
Winds: from the NNW (340 degrees) at 9 MPH (8 knots; 4.1 m/s)
Visibility: 6 or more miles (10+ km)
Ceiling: at least 12,000 feet AGL
Clouds: scattered clouds at 3500 feet AGL
Weather: no significant weather forecast for this period